Time;durP1;ratioP1;P1;durP2;ratioP2;P2;SDS_P1;SDS_P2;PMS_P1;PMS_P2;Temp;Humidity;BMP_temperature;BMP_pressure;BME280_temperature;BME280_humidity;BME280_pressure;Samples;Min_cycle;Max_cycle;Signal;HPM_P1;HPM_P2
2021/01/22 00:01:35;;;;;;;512.90;326.53;;;77.70;2227.20;;;;;;4924040;29;20114;-85
2021/01/22 00:04:01;;;;;;;509.67;318.77;;;77.70;2227.20;;;;;;4940895;29;20031;-86
2021/01/22 00:06:27;;;;;;;523.00;329.03;;;102.40;2227.20;;;;;;4939554;29;20027;-85
2021/01/22 00:08:53;;;;;;;525.03;338.43;;;102.40;2227.20;;;;;;4924042;29;20027;-86
2021/01/22 00:11:18;;;;;;;484.53;310.03;;;102.50;2227.20;;;;;;4923776;29;20034;-86
2021/01/22 00:13:44;;;;;;;501.93;312.47;;;102.40;2227.20;;;;;;4923942;29;20050;-86
2021/01/22 00:16:10;;;;;;;543.47;350.37;;;102.50;2227.20;;;;;;4923651;29;20027;-85
2021/01/22 00:18:35;;;;;;;563.77;372.43;;;102.40;2227.20;;;;;;4923620;29;20047;-84
2021/01/22 00:21:02;;;;;;;530.80;341.17;;;102.50;2227.20;;;;;;4939387;29;20128;-89
2021/01/22 00:23:29;;;;;;;527.27;341.17;;;102.60;2227.20;;;;;;4939362;29;20075;-84
2021/01/22 00:25:54;;;;;;;502.97;323.43;;;102.70;2227.20;;;;;;4923582;29;20078;-84
2021/01/22 00:28:20;;;;;;;509.33;325.73;;;102.70;2227.20;;;;;;4922999;29;20083;-84
2021/01/22 00:30:46;;;;;;;528.40;342.33;;;102.70;2227.20;;;;;;4923477;29;20055;-84
2021/01/22 00:33:12;;;;;;;534.40;348.90;;;102.40;2227.20;;;;;;4923320;29;20039;-85
2021/01/22 00:35:37;;;;;;;532.87;353.10;;;102.40;2227.20;;;;;;4923244;29;20106;-84
2021/01/22 00:38:03;;;;;;;534.67;345.30;;;102.60;2227.20;;;;;;4923391;29;20038;-85
2021/01/22 00:40:29;;;;;;;515.43;324.37;;;102.60;2227.20;;;;;;4923441;29;20051;-84
2021/01/22 00:42:56;;;;;;;479.50;303.90;;;102.70;2227.20;;;;;;4923083;29;20103;-84
2021/01/22 00:45:22;;;;;;;478.10;300.50;;;102.80;2227.20;;;;;;4922945;29;20046;-84
2021/01/22 00:47:47;;;;;;;465.77;284.77;;;102.80;2227.20;;;;;;4923067;29;20027;-84
2021/01/22 00:50:13;;;;;;;447.30;271.00;;;102.60;2227.20;;;;;;4922862;29;20036;-84
2021/01/22 00:52:39;;;;;;;433.53;271.27;;;102.70;2227.20;;;;;;4939858;29;20494;-84
2021/01/22 00:55:06;;;;;;;423.67;263.63;;;102.70;2227.20;;;;;;4922895;29;20060;-83
2021/01/22 00:57:32;;;;;;;456.23;288.67;;;102.80;2227.20;;;;;;4939591;29;20070;-84
2021/01/22 00:59:58;;;;;;;453.17;275.70;;;102.80;2227.20;;;;;;4921385;29;20069;-83
2021/01/22 01:02:23;;;;;;;452.10;280.47;;;102.80;2227.20;;;;;;4914907;29;20036;-84
2021/01/22 01:04:49;;;;;;;516.97;334.93;;;102.60;2227.20;;;;;;4903921;29;20039;-84
2021/01/22 01:07:15;;;;;;;508.03;322.20;;;77.70;2227.20;;;;;;4903843;29;20493;-85
2021/01/22 01:09:40;;;;;;;515.40;336.43;;;102.40;2227.20;;;;;;4903528;29;20040;-84
2021/01/22 01:12:06;;;;;;;494.97;299.77;;;102.50;2227.20;;;;;;4903647;29;20463;-84
2021/01/22 01:14:32;;;;;;;471.90;283.80;;;102.50;2227.20;;;;;;4903601;29;20180;-84
2021/01/22 01:16:58;;;;;;;444.80;268.20;;;102.50;2227.20;;;;;;4903854;29;20504;-84
2021/01/22 01:19:24;;;;;;;400.13;240.93;;;102.60;2227.20;;;;;;4903638;29;20604;-84
2021/01/22 01:21:49;;;;;;;352.97;207.43;;;102.60;2227.20;;;;;;4903134;29;20036;-84
2021/01/22 01:24:15;;;;;;;321.30;186.80;;;102.50;2227.20;;;;;;4903484;29;20084;-84
2021/01/22 01:26:41;;;;;;;308.87;184.73;;;102.60;2227.20;;;;;;4903643;29;20028;-84
2021/01/22 01:29:07;;;;;;;284.80;172.97;;;102.60;2227.20;;;;;;4903082;29;20052;-84
2021/01/22 01:31:33;;;;;;;237.07;139.80;;;102.60;2227.20;;;;;;4919165;29;20036;-84
2021/01/22 01:33:58;;;;;;;216.47;127.87;;;102.50;2227.20;;;;;;4919133;29;20092;-84
2021/01/22 01:36:24;;;;;;;250.47;143.97;;;102.40;2227.20;;;;;;4919063;29;20024;-85
2021/01/22 01:38:50;;;;;;;258.83;152.87;;;102.40;2227.20;;;;;;4918889;29;20109;-85
2021/01/22 01:41:16;;;;;;;234.87;136.20;;;102.50;2227.20;;;;;;4919156;29;20398;-84
2021/01/22 01:43:41;;;;;;;190.93;119.80;;;102.50;2227.20;;;;;;4918714;29;20028;-84
2021/01/22 01:46:07;;;;;;;170.93;103.13;;;102.50;2227.20;;;;;;4918883;29;20032;-84
2021/01/22 01:48:33;;;;;;;144.67;94.27;;;102.50;2227.20;;;;;;4918991;29;20039;-84
2021/01/22 01:50:59;;;;;;;145.90;89.53;;;102.50;2227.20;;;;;;4918775;29;20036;-84
2021/01/22 01:53:27;;;;;;;139.60;89.67;;;102.50;2227.20;;;;;;4918772;29;20052;-84
2021/01/22 01:55:52;;;;;;;174.63;102.27;;;102.60;2227.20;;;;;;4918743;29;20059;-86
2021/01/22 01:58:19;;;;;;;224.63;133.60;;;102.60;2227.20;;;;;;4919390;29;20123;-83
2021/01/22 02:00:45;;;;;;;225.97;134.23;;;102.60;2227.20;;;;;;4917387;29;20067;-84
2021/01/22 02:03:11;;;;;;;184.87;108.80;;;102.60;2227.20;;;;;;4918667;29;20020;-84
2021/01/22 02:05:36;;;;;;;158.27;101.13;;;102.60;2227.20;;;;;;4918766;29;20031;-84
2021/01/22 02:08:03;;;;;;;160.07;96.50;;;102.60;2227.20;;;;;;4920777;29;20040;-84
2021/01/22 02:10:30;;;;;;;148.90;92.23;;;102.80;2227.20;;;;;;4921532;29;20027;-84
2021/01/22 02:12:57;;;;;;;145.47;87.50;;;102.60;2227.20;;;;;;4938233;29;20520;-84
2021/01/22 02:15:23;;;;;;;158.17;93.17;;;102.70;2227.20;;;;;;4938253;29;20103;-88
2021/01/22 02:17:51;;;;;;;154.87;99.37;;;102.60;2227.20;;;;;;4921317;29;20110;-84
2021/01/22 02:20:27;;;;;;;174.83;106.53;;;102.70;2227.20;;;;;;4921432;29;20028;-84
2021/01/22 02:22:55;;;;;;;173.07;102.37;;;102.60;2227.20;;;;;;4920931;29;20059;-84
2021/01/22 02:25:33;;;;;;;162.90;103.17;;;102.70;2227.20;;;;;;4925612;29;20047;-84
2021/01/22 02:27:59;;;;;;;165.67;102.10;;;102.60;2227.20;;;;;;4924339;28;20100;-89
2021/01/22 02:30:25;;;;;;;203.23;120.37;;;102.70;2227.20;;;;;;4905232;29;20056;-83
2021/01/22 02:32:52;;;;;;;216.83;127.77;;;102.60;2227.20;;;;;;4905237;29;20040;-84
2021/01/22 02:35:22;;;;;;;205.83;123.80;;;102.60;2227.20;;;;;;4902336;29;20032;-87
2021/01/22 02:37:49;;;;;;;201.87;116.83;;;102.60;2227.20;;;;;;4901879;29;20032;-85
2021/01/22 02:40:15;;;;;;;219.07;127.77;;;102.70;2227.20;;;;;;4902304;29;20028;-84
2021/01/22 02:42:42;;;;;;;292.23;167.27;;;102.50;2227.20;;;;;;4902197;29;20028;-84
2021/01/22 02:45:13;;;;;;;258.57;150.13;;;102.50;2227.20;;;;;;4901569;29;20182;-85
2021/01/22 02:47:47;;;;;;;236.37;139.17;;;102.50;2227.20;;;;;;4901605;29;20032;-85
2021/01/22 02:50:18;;;;;;;220.83;127.87;;;102.50;2227.20;;;;;;4901883;29;20085;-84
2021/01/22 02:52:44;;;;;;;193.57;115.53;;;102.50;2227.20;;;;;;4902002;29;20036;-87
2021/01/22 02:55:13;;;;;;;200.77;115.40;;;102.60;2227.20;;;;;;4902009;29;20039;-84
2021/01/22 02:57:51;;;;;;;236.23;139.67;;;102.50;2227.20;;;;;;4901934;29;20028;-84
2021/01/22 03:00:28;;;;;;;242.70;142.60;;;102.40;2227.20;;;;;;4901670;29;20039;-84
2021/01/22 03:03:05;;;;;;;198.10;117.57;;;102.50;2227.20;;;;;;4901854;29;20032;-84
2021/01/22 03:05:33;;;;;;;188.17;111.43;;;102.50;2227.20;;;;;;4901839;29;20020;-84
2021/01/22 03:08:16;;;;;;;168.37;102.93;;;102.60;2227.20;;;;;;4901625;29;20032;-84
2021/01/22 03:10:44;;;;;;;;;;;102.60;2227.20;;;;;;4902180;29;20119;-84
2021/01/22 03:13:11;;;;;;;157.83;96.03;;;102.60;2227.20;;;;;;4901604;29;19915;-85
2021/01/22 03:15:39;;;;;;;168.10;99.27;;;102.60;2227.20;;;;;;4901445;29;20028;-85
2021/01/22 03:18:19;;;;;;;165.67;99.63;;;102.70;2227.20;;;;;;4901499;29;20036;-84
2021/01/22 03:20:46;;;;;;;163.90;101.23;;;102.70;2227.20;;;;;;4901625;29;20032;-84
2021/01/22 03:23:14;;;;;;;195.90;119.87;;;102.70;2227.20;;;;;;4901059;29;20071;-83
2021/01/22 03:25:41;;;;;;;182.77;111.57;;;102.50;2227.20;;;;;;4918311;29;20032;-84
2021/01/22 03:28:08;;;;;;;180.50;109.80;;;102.60;2227.20;;;;;;4905448;29;20087;-84
2021/01/22 03:30:34;;;;;;;165.80;101.30;;;102.60;2227.20;;;;;;4920194;29;20568;-84
2021/01/22 03:33:00;;;;;;;200.93;108.53;;;102.70;2227.20;;;;;;4920344;29;20036;-84
2021/01/22 03:35:26;;;;;;;240.83;130.23;;;102.70;2227.20;;;;;;4919847;29;20031;-85
2021/01/22 03:37:52;;;;;;;224.10;124.83;;;102.80;2227.20;;;;;;4936922;29;20027;-84
2021/01/22 03:40:18;;;;;;;252.43;137.57;;;102.80;2227.20;;;;;;4920248;29;20027;-84
2021/01/22 03:42:47;;;;;;;227.33;124.17;;;102.70;2227.20;;;;;;4920065;29;20505;-84
2021/01/22 03:45:14;;;;;;;207.57;127.77;;;102.50;2227.20;;;;;;4937148;29;20023;-89
2021/01/22 03:47:41;;;;;;;201.87;123.07;;;102.40;2227.20;;;;;;4920232;29;20059;-84
2021/01/22 03:50:09;;;;;;;168.37;106.97;;;102.50;2227.20;;;;;;4919990;29;20039;-84
2021/01/22 03:52:35;;;;;;;183.80;108.57;;;102.50;2227.20;;;;;;4919953;29;20034;-84
2021/01/22 03:55:00;;;;;;;171.07;102.73;;;102.60;2227.20;;;;;;4920018;29;20032;-84
2021/01/22 03:57:26;;;;;;;153.73;90.07;;;102.60;2227.20;;;;;;4919916;29;20084;-87
2021/01/22 03:59:52;;;;;;;143.13;83.37;;;102.70;2227.20;;;;;;4936855;29;20035;-84
2021/01/22 04:02:17;;;;;;;134.90;82.33;;;102.70;2227.20;;;;;;4920099;29;20443;-84
2021/01/22 04:04:44;;;;;;;227.57;120.93;;;102.70;2227.20;;;;;;4917738;29;20034;-84
2021/01/22 04:07:11;;;;;;;180.47;99.47;;;102.70;2227.20;;;;;;4920136;29;20496;-83
2021/01/22 04:09:37;;;;;;;161.50;96.33;;;102.60;2227.20;;;;;;4919632;29;20035;-85
2021/01/22 04:12:03;;;;;;;134.77;81.43;;;102.40;2227.20;;;;;;4919999;29;20027;-84
2021/01/22 04:14:28;;;;;;;137.40;84.93;;;102.40;2227.20;;;;;;4919886;29;20037;-88
2021/01/22 04:16:58;;;;;;;137.50;83.60;;;77.70;2227.20;;;;;;4919975;29;20027;-83
2021/01/22 04:19:27;;;;;;;141.83;84.60;;;102.40;2227.20;;;;;;4919641;29;20077;-84
2021/01/22 04:21:56;;;;;;;132.70;84.23;;;102.50;2227.20;;;;;;4919623;29;20095;-84
2021/01/22 04:24:21;;;;;;;139.27;84.30;;;102.60;2227.20;;;;;;4919744;29;20040;-84
2021/01/22 04:26:47;;;;;;;143.33;85.33;;;102.50;2227.20;;;;;;4919874;29;20163;-84
2021/01/22 04:29:16;;;;;;;141.13;82.50;;;102.50;2227.20;;;;;;4916265;29;20107;-84
2021/01/22 04:31:42;;;;;;;131.97;80.10;;;102.60;2227.20;;;;;;4900762;29;20035;-84
2021/01/22 04:34:08;;;;;;;152.23;92.63;;;102.60;2227.20;;;;;;4900838;29;20032;-87
2021/01/22 04:36:34;;;;;;;161.70;97.20;;;102.60;2227.20;;;;;;4904636;29;20028;-84
2021/01/22 04:39:00;;;;;;;145.33;84.70;;;102.60;2227.20;;;;;;4904503;29;20088;-84
2021/01/22 04:41:25;;;;;;;150.33;92.07;;;102.60;2227.20;;;;;;4921082;29;20032;-84
2021/01/22 04:43:51;;;;;;;154.57;95.10;;;102.60;2227.20;;;;;;4903852;29;20494;-84
2021/01/22 04:46:17;;;;;;;161.03;100.73;;;102.60;2227.20;;;;;;4904316;29;20029;-84
2021/01/22 04:48:43;;;;;;;165.00;98.77;;;102.60;2227.20;;;;;;4904120;29;20028;-84
2021/01/22 04:51:10;;;;;;;173.47;105.50;;;102.70;2227.20;;;;;;4903118;29;20060;-89
2021/01/22 04:53:37;;;;;;;162.03;100.73;;;102.60;2227.20;;;;;;4920681;29;20040;-84
2021/01/22 04:56:05;;;;;;;162.57;97.10;;;102.60;2227.20;;;;;;4920152;29;20088;-83
2021/01/22 04:58:35;;;;;;;167.43;100.40;;;102.60;2227.20;;;;;;4919686;29;20040;-83
2021/01/22 05:01:03;;;;;;;173.93;102.17;;;102.50;2227.20;;;;;;4919685;29;20101;-83
2021/01/22 05:03:29;;;;;;;178.43;101.97;;;102.50;2227.20;;;;;;4919892;29;20087;-86
2021/01/22 05:05:58;;;;;;;153.97;96.33;;;102.50;2227.20;;;;;;4919694;29;20111;-83
2021/01/22 05:08:25;;;;;;;191.70;113.80;;;102.50;2227.20;;;;;;4903803;29;20034;-85
2021/01/22 05:10:51;;;;;;;182.53;112.27;;;102.60;2227.20;;;;;;4920474;29;20120;-83
2021/01/22 05:13:17;;;;;;;258.13;152.13;;;102.50;2227.20;;;;;;4928696;29;20020;-87
2021/01/22 05:15:42;;;;;;;233.20;141.73;;;102.60;2227.20;;;;;;4910464;29;20025;-84
2021/01/22 05:18:08;;;;;;;222.97;131.53;;;102.60;2227.20;;;;;;4922992;29;20059;-84
2021/01/22 05:20:39;;;;;;;202.53;126.03;;;102.50;2227.20;;;;;;4903831;29;20024;-85
2021/01/22 05:23:07;;;;;;;204.50;125.23;;;102.50;2227.20;;;;;;4919284;29;20035;-84
2021/01/22 05:25:57;;;;;;;193.37;120.47;;;102.50;2227.20;;;;;;4919060;29;20024;-88
2021/01/22 05:28:34;;;;;;;203.77;117.07;;;102.60;2227.20;;;;;;4862157;29;20149;-85
2021/01/22 05:31:01;;;;;;;186.87;111.67;;;102.60;2227.20;;;;;;4862415;29;20041;-85
2021/01/22 05:33:29;;;;;;;141.57;87.40;;;102.50;2227.20;;;;;;4862226;29;20046;-84
2021/01/22 05:35:55;;;;;;;161.17;93.23;;;102.40;2227.20;;;;;;4862180;29;20029;-88
2021/01/22 05:38:40;;;;;;;159.40;93.40;;;102.50;2227.20;;;;;;4861972;29;20036;-84
2021/01/22 05:41:07;;;;;;;136.23;80.23;;;102.50;2227.20;;;;;;4862217;29;20038;-84
2021/01/22 05:43:37;;;;;;;119.00;72.17;;;102.70;2227.20;;;;;;4862161;29;20026;-89
2021/01/22 05:46:13;;;;;;;111.07;71.63;;;102.50;2227.20;;;;;;4861506;29;20041;-84
2021/01/22 05:48:39;;;;;;;132.83;81.60;;;102.60;2227.20;;;;;;4861786;29;20568;-84
2021/01/22 05:51:05;;;;;;;169.80;100.50;;;102.60;2227.20;;;;;;4861769;29;20050;-84
2021/01/22 05:53:31;;;;;;;179.37;106.70;;;102.50;2227.20;;;;;;4861975;29;20091;-84
2021/01/22 05:56:07;;;;;;;181.03;103.60;;;102.50;2227.20;;;;;;4859551;29;20553;-83
2021/01/22 05:58:33;;;;;;;119.87;75.77;;;102.50;2227.20;;;;;;4846439;29;20087;-84
2021/01/22 06:01:19;;;;;;;142.90;76.67;;;102.50;2227.20;;;;;;4861487;29;20041;-84
2021/01/22 06:03:49;;;;;;;150.60;83.30;;;102.50;2227.20;;;;;;4861700;29;20063;-84
2021/01/22 06:06:16;;;;;;;187.30;110.83;;;102.40;2227.20;;;;;;4911375;29;20035;-84
2021/01/22 06:08:58;;;;;;;206.00;121.90;;;77.70;2227.20;;;;;;4918583;29;20032;-84
2021/01/22 06:11:28;;;;;;;189.02;111.70;;;77.70;2227.20;;;;;;4918193;29;20542;-83
2021/01/22 06:13:59;;;;;;;216.97;130.60;;;102.40;2227.20;;;;;;4902351;29;20071;-83
2021/01/22 06:16:26;;;;;;;237.83;139.67;;;102.40;2227.20;;;;;;4918139;29;20100;-84
2021/01/22 06:19:00;;;;;;;279.03;160.57;;;102.40;2227.20;;;;;;4918348;29;20489;-85
2021/01/22 06:21:26;;;;;;;253.43;149.67;;;102.50;2227.20;;;;;;4918286;29;20071;-85
2021/01/22 06:23:53;;;;;;;297.53;179.27;;;102.50;2227.20;;;;;;4902376;29;20043;-84
2021/01/22 06:26:20;;;;;;;244.10;144.67;;;102.40;2227.20;;;;;;4918151;29;20032;-84
2021/01/22 06:28:49;;;;;;;256.57;150.43;;;102.40;2227.20;;;;;;4927363;29;20051;-87
2021/01/22 06:31:17;;;;;;;270.80;161.17;;;102.40;2227.20;;;;;;4936973;29;20485;-84
2021/01/22 06:33:47;;;;;;;287.77;176.97;;;102.50;2227.20;;;;;;4936796;29;20506;-84
2021/01/22 06:36:15;;;;;;;291.37;174.70;;;102.50;2227.20;;;;;;4938071;29;20024;-84
2021/01/22 06:38:41;;;;;;;267.77;164.43;;;102.50;2227.20;;;;;;4937954;29;20106;-84
2021/01/22 06:41:10;;;;;;;244.43;151.80;;;102.50;2227.20;;;;;;4933089;29;20127;-85
2021/01/22 06:43:37;;;;;;;242.83;149.70;;;102.50;2227.20;;;;;;4921011;29;20498;-85
2021/01/22 06:46:08;;;;;;;251.50;148.60;;;102.50;2227.20;;;;;;4920613;29;20023;-89
2021/01/22 06:48:54;;;;;;;324.43;191.37;;;102.50;2227.20;;;;;;4921045;29;20122;-87
2021/01/22 06:51:21;;;;;;;420.83;258.80;;;102.50;2227.20;;;;;;4919290;29;20072;-84
2021/01/22 06:54:10;;;;;;;441.00;266.37;;;102.40;2227.20;;;;;;4920430;29;20040;-84
2021/01/22 06:56:45;;;;;;;399.10;242.03;;;102.50;2227.20;;;;;;4920057;29;20032;-84
2021/01/22 06:59:20;;;;;;;423.80;254.70;;;102.40;2227.20;;;;;;4920144;29;20059;-84
2021/01/22 07:01:47;;;;;;;433.17;274.73;;;102.50;2227.20;;;;;;4919380;29;20494;-89
2021/01/22 07:04:31;;;;;;;453.53;287.37;;;102.50;2227.20;;;;;;4920747;29;20020;-85
2021/01/22 07:06:58;;;;;;;412.13;259.10;;;102.60;2227.20;;;;;;4920565;29;20394;-84
2021/01/22 07:09:43;;;;;;;390.37;238.10;;;102.70;2227.20;;;;;;4916711;29;20032;-84
2021/01/22 07:12:13;;;;;;;350.43;215.97;;;102.70;2227.20;;;;;;4920399;29;20036;-84
2021/01/22 07:14:46;;;;;;;377.33;228.93;;;102.70;2227.20;;;;;;4920787;29;20039;-83
2021/01/22 07:17:28;;;;;;;343.77;213.57;;;102.70;2227.20;;;;;;4919149;29;20078;-88
2021/01/22 07:20:03;;;;;;;331.10;194.17;;;102.80;2227.20;;;;;;4930307;29;20066;-89
2021/01/22 07:22:30;;;;;;;311.00;190.17;;;102.90;2227.20;;;;;;4919699;29;20402;-84
2021/01/22 07:24:58;;;;;;;233.80;145.23;;;102.90;2227.20;;;;;;4917713;29;20072;-84
2021/01/22 07:27:39;;;;;;;204.13;125.07;;;102.90;2227.20;;;;;;4920966;29;20024;-87
2021/01/22 07:30:16;;;;;;;208.13;124.20;;;103.00;2227.20;;;;;;4916930;29;20111;-87
2021/01/22 07:32:43;;;;;;;175.87;112.97;;;103.10;2227.20;;;;;;4916697;29;20566;-84
2021/01/22 07:35:24;;;;;;;201.90;125.90;;;103.10;2227.20;;;;;;4901326;29;20032;-83
2021/01/22 07:37:51;;;;;;;207.67;115.87;;;103.30;2227.20;;;;;;4901207;29;20132;-83
2021/01/22 07:40:18;;;;;;;194.23;121.07;;;128.10;2252.80;;;;;;4901350;29;20039;-84
2021/01/22 07:42:44;;;;;;;305.90;184.60;;;128.20;2252.80;;;;;;4925297;29;20032;-82
2021/01/22 07:45:15;;;;;;;266.13;165.27;;;128.50;2227.20;;;;;;4900510;29;20395;-81
2021/01/22 07:47:43;;;;;;;246.60;153.97;;;128.40;2227.20;;;;;;4919028;29;20046;-84
2021/01/22 07:50:19;;;;;;;260.97;163.80;;;128.40;2227.20;;;;;;4916505;29;20033;-83
2021/01/22 07:52:49;;;;;;;289.17;187.43;;;128.40;2227.20;;;;;;4915257;29;20070;-83
2021/01/22 07:55:17;;;;;;;268.20;180.50;;;128.70;2227.20;;;;;;4917999;29;20042;-84
2021/01/22 07:57:43;;;;;;;236.13;154.23;;;128.80;2201.60;;;;;;4908001;29;20035;-85
2021/01/22 08:00:11;;;;;;;200.50;124.30;;;128.90;2176.00;;;;;;4926781;29;20054;-85
2021/01/22 08:02:37;;;;;;;188.97;119.80;;;128.90;2176.00;;;;;;4936543;29;20008;-85
2021/01/22 08:05:07;;;;;;;211.47;136.33;;;153.60;2201.60;;;;;;4936405;29;20059;-86
2021/01/22 08:07:42;;;;;;;211.57;138.63;;;153.80;2176.00;;;;;;4938011;29;20043;-89
2021/01/22 08:10:12;;;;;;;246.10;158.37;;;154.00;2150.40;;;;;;4923443;29;20052;-87
2021/01/22 08:12:53;;;;;;;249.97;164.13;;;154.20;2150.40;;;;;;4918686;29;20035;-87
2021/01/22 08:15:20;;;;;;;299.17;204.37;;;154.30;2150.40;;;;;;4938780;29;20100;-88
2021/01/22 08:17:47;;;;;;;304.30;205.87;;;154.40;2099.20;;;;;;4923719;29;20039;-87
2021/01/22 08:20:14;;;;;;;307.33;207.70;;;154.50;2099.20;;;;;;4923626;29;20035;-87
2021/01/22 08:22:40;;;;;;;255.73;167.10;;;179.20;2099.20;;;;;;4923615;29;20068;-84
2021/01/22 08:25:06;;;;;;;306.20;201.67;;;179.40;2227.20;;;;;;4923679;29;20028;-85
2021/01/22 08:27:31;;;;;;;295.30;190.03;;;179.70;2073.60;;;;;;4922658;29;20046;-84
2021/01/22 08:29:58;;;;;;;304.33;201.77;;;180.00;2099.20;;;;;;4899592;29;20095;-86
2021/01/22 08:32:24;;;;;;;261.30;166.40;;;204.80;2048.00;;;;;;4903205;29;20028;-84
2021/01/22 08:34:51;;;;;;;232.90;153.17;;;180.10;2022.40;;;;;;4901129;29;20044;-84
2021/01/22 08:37:16;;;;;;;255.13;162.37;;;179.90;2022.40;;;;;;4897870;29;20039;-87
2021/01/22 08:39:46;;;;;;;242.17;154.87;;;179.80;2022.40;;;;;;4890626;29;20037;-88
2021/01/22 08:42:12;;;;;;;240.87;151.50;;;179.90;2022.40;;;;;;4888858;29;20028;-86
2021/01/22 08:44:51;;;;;;;224.77;143.27;;;179.90;2022.40;;;;;;4903204;29;20032;-85
2021/01/22 08:47:17;;;;;;;257.00;152.97;;;180.00;1996.80;;;;;;4904074;29;20041;-86
2021/01/22 08:50:01;;;;;;;225.77;137.03;;;180.00;2022.40;;;;;;4903817;29;20035;-85
2021/01/22 08:52:28;;;;;;;119.63;73.97;;;180.00;2022.40;;;;;;4918854;29;20040;-86
2021/01/22 08:54:57;;;;;;;168.63;104.10;;;180.00;1996.80;;;;;;4902981;29;20032;-86
2021/01/22 08:57:24;;;;;;;198.23;118.33;;;179.80;1996.80;;;;;;4900715;29;20084;-88
2021/01/22 08:59:52;;;;;;;198.33;128.50;;;179.70;2022.40;;;;;;4900258;29;20035;-85
2021/01/22 09:02:37;;;;;;;214.63;138.43;;;179.70;2048.00;;;;;;4902216;29;20402;-87
2021/01/22 09:05:10;;;;;;;198.33;130.70;;;179.70;2022.40;;;;;;4903738;29;20027;-86
2021/01/22 09:07:37;;;;;;;217.38;141.95;;;179.60;2073.60;;;;;;4902966;29;20038;-87
2021/01/22 09:10:04;;;;;;;160.03;103.13;;;179.70;2048.00;;;;;;4903500;29;20088;-86
2021/01/22 09:12:32;;;;;;;143.53;91.80;;;179.60;2073.60;;;;;;4903411;29;20486;-86
2021/01/22 09:15:02;;;;;;;135.87;84.60;;;179.60;2073.60;;;;;;4903049;29;20032;-87
2021/01/22 09:17:41;;;;;;;126.43;82.10;;;179.60;2073.60;;;;;;4902852;29;20030;-86
2021/01/22 09:20:15;;;;;;;109.67;76.43;;;179.60;2073.60;;;;;;4900814;29;20032;-86
2021/01/22 09:22:43;;;;;;;138.77;93.47;;;179.60;2073.60;;;;;;4902833;29;20038;-86
2021/01/22 09:25:18;;;;;;;142.97;91.13;;;179.60;2073.60;;;;;;4903543;29;20058;-86
2021/01/22 09:27:47;;;;;;;105.27;70.10;;;179.60;2073.60;;;;;;4902049;29;20059;-86
2021/01/22 09:30:15;;;;;;;104.23;68.77;;;179.50;2073.60;;;;;;4917745;29;20031;-85
2021/01/22 09:32:49;;;;;;;121.57;73.47;;;179.40;2073.60;;;;;;4919385;29;20035;-86
2021/01/22 09:35:15;;;;;;;115.90;74.73;;;179.60;2099.20;;;;;;4919795;29;20038;-86
2021/01/22 09:37:41;;;;;;;133.57;92.60;;;179.60;2073.60;;;;;;4919116;29;20034;-86
2021/01/22 09:40:08;;;;;;;164.97;110.03;;;179.70;2073.60;;;;;;4920751;29;20110;-85
2021/01/22 09:42:37;;;;;;;171.63;119.37;;;179.60;2073.60;;;;;;4921509;29;20031;-92
2021/01/22 09:45:33;;;;;;;184.10;122.03;;;179.70;2073.60;;;;;;4920922;29;20031;-92
2021/01/22 09:47:58;;;;;;;167.73;113.93;;;179.90;2073.60;;;;;;4844982;29;20045;-89
2021/01/22 09:50:24;;;;;;;177.37;122.27;;;179.80;2048.00;;;;;;4844572;29;20234;-86
2021/01/22 09:52:50;;;;;;;228.63;155.57;;;179.90;2073.60;;;;;;4833336;29;20041;-88
2021/01/22 09:55:19;;;;;;;229.17;150.30;;;179.90;2073.60;;;;;;4839886;29;20509;-87
2021/01/22 09:57:45;;;;;;;215.27;147.00;;;179.70;2073.60;;;;;;4837332;29;20672;-86
2021/01/22 10:00:15;;;;;;;170.80;116.40;;;179.70;2099.20;;;;;;4856292;29;20049;-86
2021/01/22 10:02:41;;;;;;;154.50;100.43;;;179.60;2099.20;;;;;;4857717;29;20034;-94
2021/01/22 10:05:08;;;;;;;163.83;111.10;;;179.60;2099.20;;;;;;4859080;29;20034;-94
2021/01/22 10:07:34;;;;;;;121.83;87.20;;;179.60;2099.20;;;;;;4853040;29;20060;-87
2021/01/22 10:10:00;;;;;;;124.43;84.67;;;179.50;2099.20;;;;;;4834897;29;20029;-89
2021/01/22 10:12:25;;;;;;;125.70;85.07;;;179.50;2099.20;;;;;;4841424;29;20055;-92
2021/01/22 10:14:54;;;;;;;125.97;84.70;;;179.60;2099.20;;;;;;4843260;29;20148;-92
2021/01/22 10:17:23;;;;;;;129.77;93.50;;;179.60;2099.20;;;;;;4843332;29;20152;-89
2021/01/22 10:19:49;;;;;;;141.07;96.60;;;179.80;2073.60;;;;;;4845057;29;20030;-86
2021/01/22 10:22:15;;;;;;;144.93;97.47;;;179.90;2048.00;;;;;;4845233;29;20440;-86
2021/01/22 10:24:42;;;;;;;153.97;105.73;;;179.90;2073.60;;;;;;4871700;29;20032;-86
2021/01/22 10:27:08;;;;;;;145.83;100.97;;;179.90;2073.60;;;;;;4920479;29;20028;-87
2021/01/22 10:29:34;;;;;;;150.73;97.63;;;179.80;2073.60;;;;;;4902808;29;20143;-86
2021/01/22 10:31:59;;;;;;;150.97;100.87;;;179.90;2048.00;;;;;;4901066;29;20060;-87
2021/01/22 10:34:25;;;;;;;120.17;86.43;;;204.80;2048.00;;;;;;4901877;29;20055;-84
2021/01/22 10:36:51;;;;;;;127.97;88.43;;;205.00;2022.40;;;;;;4902072;29;20036;-85
2021/01/22 10:39:16;;;;;;;144.43;97.40;;;205.10;1996.80;;;;;;4902614;29;20135;-86
2021/01/22 10:41:42;;;;;;;157.03;108.07;;;204.90;1996.80;;;;;;4906212;29;20047;-86
2021/01/22 10:44:08;;;;;;;157.17;107.10;;;205.00;2022.40;;;;;;4910292;29;20501;-87
2021/01/22 10:46:33;;;;;;;150.17;104.90;;;205.00;2022.40;;;;;;4923858;29;20078;-86
2021/01/22 10:49:00;;;;;;;159.13;108.67;;;205.20;1996.80;;;;;;4922488;29;20094;-85
2021/01/22 10:51:25;;;;;;;142.17;100.30;;;205.30;1996.80;;;;;;4917464;29;20040;-88
2021/01/22 10:53:51;;;;;;;149.30;101.70;;;205.40;1971.20;;;;;;4920464;29;20114;-86
2021/01/22 10:56:17;;;;;;;150.13;106.77;;;205.40;1971.20;;;;;;4920682;29;20478;-86
2021/01/22 10:58:43;;;;;;;154.57;107.73;;;205.40;1971.20;;;;;;4919982;29;20046;-88
2021/01/22 11:01:08;;;;;;;185.23;121.60;;;205.50;1971.20;;;;;;4920263;29;20035;-88
2021/01/22 11:03:34;;;;;;;246.03;160.47;;;205.70;1971.20;;;;;;4920826;29;20502;-87
2021/01/22 11:06:00;;;;;;;250.47;168.37;;;205.70;1945.60;;;;;;4920553;29;20040;-85
2021/01/22 11:08:25;;;;;;;255.87;167.97;;;205.70;1945.60;;;;;;4920898;29;20042;-88
2021/01/22 11:10:51;;;;;;;226.10;155.87;;;230.40;1945.60;;;;;;4920588;29;20039;-88
2021/01/22 11:13:20;;;;;;;230.48;158.00;;;230.40;1945.60;;;;;;4926042;29;20039;-91
2021/01/22 11:15:45;;;;;;;225.77;157.07;;;230.50;1945.60;;;;;;4942336;29;20028;-92
2021/01/22 11:18:11;;;;;;;221.52;151.75;;;230.50;1920.00;;;;;;4939873;29;20054;-91
2021/01/22 11:20:37;;;;;;;183.17;124.73;;;230.60;1945.60;;;;;;4940514;29;20070;-90
2021/01/22 11:23:03;;;;;;;192.23;124.03;;;230.50;1945.60;;;;;;4939761;29;20035;-93
2021/01/22 11:28:04;;;;;;;200.73;131.90;;;230.70;1920.00;;;;;;5072976;23;20058;-93
2021/01/22 11:30:30;;;;;;;166.73;116.27;;;230.80;1920.00;;;;;;4958767;28;20030;-93
2021/01/22 11:33:31;;;;;;;125.60;91.22;;;230.80;1894.40;;;;;;4958517;28;20042;-92
2021/01/22 11:36:01;;;;;;;125.00;90.17;;;230.70;1920.00;;;;;;4958422;28;20034;-93
2021/01/22 11:38:48;;;;;;;123.55;88.85;;;230.80;1920.00;;;;;;4958459;28;20094;-92
2021/01/22 11:44:46;;;;;;;97.95;63.80;;;231.00;1894.40;;;;;;4975654;28;20081;-88
2021/01/22 11:47:15;;;;;;;97.78;63.78;;;256.80;1945.60;;;;;;4958305;28;20042;-87
2021/01/22 11:49:40;;;;;;;101.07;65.55;;;256.90;1817.60;;;;;;4958187;28;20062;-87
2021/01/22 11:52:06;;;;;;;116.22;75.57;;;281.80;1843.20;;;;;;4958045;28;20057;-87
2021/01/22 11:54:33;;;;;;;121.32;82.95;;;281.90;1792.00;;;;;;4958481;28;20455;-87
2021/01/22 11:56:59;;;;;;;123.70;81.97;;;282.00;1766.40;;;;;;4958332;28;20039;-90